Nearby METAR Reports

 

KBED - Bedford, Massachusetts, USA
Distance from station: W 5mi, 9km
Updated: Sun, 20-Aug-2017 7:56pm EDT
Clear
Clear
 Wind from calm
Wind: Calm
Temperature: 70°F , 21°C
Dew Point: 57°F , 14°C
Humidity: 64%
Barometer: 30.03 inHg , 1016.9 hPa
Clouds: Clear
Visibility: 10 miles , 16 km
2017/08/20 23:56 KBED 202356Z 00000KT 10SM CLR 21/14 A3003 RMK AO2 SLP180 T02060139 10289 20206 53014
KBOS - Boston, Massachusetts, USA
Distance from station: SE 11mi, 18km
Updated: Sun, 20-Aug-2017 7:54pm EDT
Few Clouds
Few Clouds
 Wind from NW
Wind: NW 8 mph , 13 km/h
Temperature: 79°F , 26°C
Dew Point: 54°F , 12°C
Humidity: 42%
Barometer: 30.03 inHg , 1016.9 hPa
Clouds: Few Clouds
Visibility: 10 miles , 16 km
Cloud details: Few Clouds 15000 ft
2017/08/20 23:54 KBOS 202354Z 31007KT 10SM FEW150 26/12 A3003 RMK AO2 SLP170 T02610122 10289 20261 53016
 
KBVY - Beverly, Massachusetts, USA
Distance from station: ENE 17mi, 27km
Updated: Sun, 20-Aug-2017 7:53pm EDT
Clear
Clear
 Wind from WNW
Wind: WNW 3 mph , 6 km/h
Temperature: 72°F , 22°C
Dew Point: 57°F , 14°C
Humidity: 61%
Barometer: 30.02 inHg , 1016.6 hPa
Clouds: Clear
Visibility: 10 miles , 16 km
2017/08/20 23:53 KBVY 202353Z 30003KT 10SM CLR 22/14 A3002 RMK AO2 SLP161 T02170139 10289 20217 52014
KMQE - East Milton, Massachusetts, USA
Distance from station: SSE 17mi, 28km
Updated: Sun, 20-Aug-2017 7:56pm EDT

 Wind from NW
Wind: NW 8 mph , 13 km/h
Temperature: 73°F , 23°C
Dew Point: 54°F , 12°C
Humidity: 50%
Barometer: 30.06 inHg , 1017.9 hPa
2017/08/20 23:56 KMQE 202356Z AUTO 31007KT 23/12 A3006 RMK AO1 SLP185 T02280117 10289 20228 53017
 
KLWM - Lawrence, Massachusetts, USA
Distance from station: N 18mi, 29km
Updated: Sun, 20-Aug-2017 7:54pm EDT
Clear
Clear
 Wind from calm
Wind: Calm
Temperature: 75°F , 24°C
Dew Point: 55°F , 13°C
Humidity: 50%
Barometer: 30.05 inHg , 1017.6 hPa
Clouds: Clear
Visibility: 10 miles , 16 km
2017/08/20 23:54 KLWM 202354Z 00000KT 10SM CLR 24/13 A3005 RMK AO2 SLP175 T02390133 10294 20239 53014
KOWD - Norwood, Massachusetts, USA
Distance from station: S 19mi, 31km
Updated: Sun, 20-Aug-2017 7:53pm EDT
Clear
Clear
 Wind from NW
Wind: NW 3 mph , 6 km/h
Temperature: 73°F , 23°C
Dew Point: 57°F , 14°C
Humidity: 57%
Barometer: 30.04 inHg , 1017.3 hPa
Clouds: Clear
Visibility: 10 miles , 16 km
2017/08/20 23:53 KOWD 202353Z 31003KT 10SM CLR 23/14 A3004 RMK AO2 SLP170 T02330144 10300 20233 53016
 
KASH - Nashua/Boire Fld, New Hampshire, USA
Distance from station: NW 28mi, 45km
Updated: Sun, 20-Aug-2017 7:56pm EDT
Clear
Clear
 Wind from calm
Wind: Calm
Temperature: 70°F , 21°C
Dew Point: 61°F , 16°C
Humidity: 73%
Barometer: 30.05 inHg , 1017.6 hPa
Clouds: Clear
Visibility: 10 miles , 16 km
2017/08/20 23:56 KASH 202356Z 00000KT 10SM CLR 21/16 A3005 RMK AO2 SLP183 T02110161 10278 20211 52014
KFIT - Fitchburg, Massachusetts, USA
Distance from station: WNW 29mi, 47km
Updated: Sun, 20-Aug-2017 7:52pm EDT
Clear
Clear
 Wind from calm
Wind: Calm
Temperature: 73°F , 23°C
Dew Point: 57°F , 14°C
Humidity: 57%
Barometer: 30.06 inHg , 1017.9 hPa
Clouds: Clear
Visibility: 10 miles , 16 km
2017/08/20 23:52 KFIT 202352Z AUTO 00000KT 10SM CLR 23/14 A3006 RMK AO2 SLP178 T02330144 10289 20228 53013
 
KMHT - Manchester, New Hampshire, USA
Distance from station: NNW 35mi, 56km
Updated: Sun, 20-Aug-2017 7:53pm EDT
Few Clouds
Few Clouds
 Wind from W
Wind: W 5 mph , 7 km/h
Temperature: 75°F , 24°C
Dew Point: 55°F , 13°C
Humidity: 50%
Barometer: 30.03 inHg , 1016.9 hPa
Clouds: Few Clouds
Visibility: 10 miles , 16 km
Cloud details: Few Clouds 25000 ft
2017/08/20 23:53 KMHT 202353Z 27004KT 10SM FEW250 24/13 A3003 RMK AO2 SLP177 T02440128 10278 20244 52011
KGHG - Marshfield, Massachusetts, USA
Distance from station: SE 37mi, 59km
Updated: Sun, 20-Aug-2017 8:15pm EDT
Clear
Clear
 Wind from calm
Wind: Calm
Temperature: 72°F , 22°C
Dew Point: 61°F , 16°C
Humidity: 69%
Barometer: 30.04 inHg , 1017.3 hPa
Clouds: Clear
Visibility: 10 miles , 16 km
2017/08/21 00:15 KGHG 210015Z AUTO 00000KT 10SM CLR 22/16 A3004 RMK AO2
 
KORH - Worcester, Massachusetts, USA
Distance from station: WSW 37mi, 59km
Updated: Sun, 20-Aug-2017 7:54pm EDT
Clear
Clear
 Wind from W
Wind: W 6 mph , 9 km/h
Temperature: 68°F , 20°C
Dew Point: 55°F , 13°C
Humidity: 64%
Barometer: 30.09 inHg , 1019 hPa
Clouds: Clear
Visibility: 10 miles , 16 km
2017/08/20 23:54 KORH 202354Z 28005KT 10SM CLR 20/13 A3009 RMK AO2 SLP187 T02000128 10267 20200 51014
KSFZ - Pawtucket, Rhode Island, USA
Distance from station: SSW 41mi, 65km
Updated: Wed, 14-Jun-2017 7:56am EDT
NOT Current
Clear
Clear
 Wind from N
Wind: N 7 mph , 11 km/h
Temperature: 70°F , 21°C
Dew Point: 54°F , 12°C
Humidity: 57%
Barometer: 30.00 inHg , 1015.9 hPa
Clouds: Clear
Visibility: 10 miles , 16 km
2017/06/14 11:56 KSFZ 141156Z AUTO 01006KT 10SM CLR 21/12 A3000 RMK AO2 SLP173 60000 7//// T02060122 10217 20178 53024
 
KTAN - Taunton, Massachusetts, USA
Distance from station: SSE 41mi, 66km
Updated: Sun, 20-Aug-2017 7:52pm EDT
Clear
Clear
 Wind from calm
Wind: Calm
Temperature: 66°F , 19°C
Dew Point: 61°F , 16°C
Humidity: 83%
Barometer: 30.03 inHg , 1016.9 hPa
Clouds: Clear
Visibility: 10 miles , 16 km
2017/08/20 23:52 KTAN 202352Z AUTO 00000KT 10SM CLR 19/16 A3003 RMK AO2 SLP169 T01940156 10294 20194 53017
KPYM - Plymouth, Massachusetts, USA
Distance from station: SSE 44mi, 71km
Updated: Sun, 20-Aug-2017 7:52pm EDT
Clear
Clear
 Wind from NNW
Wind: NNW 5 mph , 7 km/h
Temperature: 75°F , 24°C
Dew Point: 54°F , 12°C
Humidity: 47%
Barometer: 30.04 inHg , 1017.3 hPa
Clouds: Clear
Visibility: 10 miles , 16 km
2017/08/20 23:52 KPYM 202352Z AUTO 33004KT 10SM CLR 24/12 A3004 RMK AO2 SLP171 T02390122 10300 20239 53018 TSNO
 
KPSM - Portsmouth/Pease, New Hampshire, USA
Distance from station: NNE 46mi, 74km
Updated: Sun, 20-Aug-2017 7:58pm EDT
Clear
Clear
 Wind from W
Wind: W 5 mph , 7 km/h
Temperature: 72°F , 22°C
Dew Point: 55°F , 13°C
Humidity: 57%
Barometer: 30.01 inHg , 1016.3 hPa
Clouds: Clear
Visibility: 10 miles , 16 km
2017/08/20 23:58 KPSM 202358Z 26004KT 10SM CLR 22/13 A3001 RMK AO2A SLP164 T02230132 10280 20223 52014 CHINO RWY16 $
KAFN - Jaffrey, New Hampshire, USA
Distance from station: WNW 47mi, 76km
Updated: Sun, 20-Aug-2017 7:52pm EDT
Clear
Clear
 Wind from calm
Wind: Calm
Temperature: 66°F , 19°C
Dew Point: 63°F , 17°C
Humidity: 88%
Barometer: 30.09 inHg , 1019 hPa
Clouds: Clear
Visibility: 10 miles , 16 km
2017/08/20 23:52 KAFN 202352Z AUTO 00000KT 10SM CLR 19/17 A3009 RMK AO2 SLP190 T01890172 10261 20189 51010